11:12
Airports
Links
Donate
Help keep this website running!
PayPal
Bitcoin
METAR
ETHF 111047Z 05005KT 7000 -RA FEW009 BKN030 02/02 Q0982 RERA WHT WHT TEMPO GRN
Current Weather Conditions at ETHF
MVFR 10:47:00 11-12-17
Altimeter:29.00 hg
Temp:2.0°c 36°f
Dew point:2.0°c 36°f
Wind:5 knots, 5.8 mph, 3 m/s, from 50°
Visibility:4.35 statute miles
3000(BKN) Broken
900(FEW) A few
Past METAR reports
MVFR 10:20:00 11-12-17
Altimeter:29.03 hg
Temp:2.0°c 36°f
Dew point:1.0°c 34°f
Wind:2 knots, 2.3 mph, 1 m/s, from 50°
Visibility:3.73 statute miles
1500(BKN) Broken
900(FEW) A few
ETHF 111020Z 05002KT 6000 RA FEW009 BKN015 02/01 Q0983 WHT WHT TEMPO GRN
MVFR 09:58:00 11-12-17
Altimeter:29.06 hg
Temp:2.0°c 36°f
Dew point:0.0°c 32°f
Wind:1 knots, 1.2 mph, 1 m/s,
Variable direction
Visibility:4.35 statute miles
1800(BKN) Broken
1000(FEW) A few
ETHF 110958Z VRB01KT 7000 RA FEW010 BKN018 02/00 Q0984 WHT WHT TEMPO GRN
MVFR 09:20:00 11-12-17
Altimeter:29.06 hg
Temp:2.0°c 36°f
Dew point:0.0°c 32°f
Wind:3 knots, 3.5 mph, 2 m/s, from 70°
Visibility:4.97 statute miles
1800(BKN) Broken
1000(FEW) A few
ETHF 110920Z 07003KT 8000 -RA FEW010 BKN018 02/M00 Q0984 WHT WHT
MVFR 08:20:00 11-12-17
Altimeter:29.06 hg
Temp:2.0°c 36°f
Dew point:-1.0°c 30°f
Wind:6 knots, 6.9 mph, 3 m/s, from 50°
Visibility:6.21 statute miles
1800(BKN) Broken
ETHF 110820Z 05006KT 9999 BKN018 02/M01 Q0984 WHT WHT
MVFR 07:20:00 11-12-17
Altimeter:29.06 hg
Temp:2.0°c 36°f
Dew point:0.0°c 32°f
Wind:2 knots, 2.3 mph, 1 m/s,
Variable direction
Visibility:6.21 statute miles
2600(BKN) Broken
1900(SCT) Scattered
ETHF 110720Z VRB02KT 9999 SCT019 BKN026 02/00 Q0984 BLU BLU BECMG WHT
VFR 06:20:00 11-12-17
Altimeter:29.06 hg
Temp:1.0°c 34°f
Dew point:0.0°c 32°f
Wind:2 knots, 2.3 mph, 1 m/s, from 40°
Visibility:6.21 statute miles
3100(BKN) Broken
ETHF 110620Z 04002KT 9999 BKN031 01/00 Q0984 BLU BLU
TAF
TAF ETHF 110821Z 1109/1118 12005KT 8000 NSW SCT012 BKN020 TEMPO 1109/1118 14007KT 4000 RA SCT005 BKN010
Forecast at ETHF
09:00 11-12-17 to 18:00 11-12-17
NSW
Wind:5 Knots from 120°
Visibility:4.97 statute miles
1200SCT Scattered
2000BKN Broken
TEMPO 09:00 11-12-17 to 18:00 11-12-17
RA
Wind:7 Knots from 140°
Visibility:2.49 statute miles
500SCT Scattered
1000BKN Broken